Time;durP1;ratioP1;P1;durP2;ratioP2;P2;SDS_P1;SDS_P2;PMS_P1;PMS_P2;Temp;Humidity;BMP_temperature;BMP_pressure;BME280_temperature;BME280_humidity;BME280_pressure;Samples;Min_cycle;Max_cycle;Signal;HPM_P1;HPM_P2
2024/03/19 00:00:59;0.00;0.00;0.62;0.00;0.00;0.62;3.83;2.90;;;22.40;20.90;;;;;;2262927;61;20353;-64
2024/03/19 00:03:26;0.00;0.00;0.62;0.00;0.00;0.62;2.50;2.27;;;22.40;20.90;;;;;;2262902;61;20722;-65
2024/03/19 00:05:53;0.00;0.00;0.62;0.00;0.00;0.62;3.40;2.63;;;22.40;20.90;;;;;;2263116;61;20360;-64
2024/03/19 00:08:19;0.00;0.00;0.62;0.00;0.00;0.62;4.40;3.03;;;22.40;20.90;;;;;;2263151;61;20353;-64
2024/03/19 00:10:46;0.00;0.00;0.62;0.00;0.00;0.62;3.50;2.53;;;22.40;20.90;;;;;;2263004;61;20506;-64
2024/03/19 00:13:12;0.00;0.00;0.62;0.00;0.00;0.62;3.80;3.23;;;22.40;20.90;;;;;;2263279;61;20350;-65
2024/03/19 00:15:38;0.00;0.00;0.62;0.00;0.00;0.62;3.90;2.87;;;22.40;20.90;;;;;;2262995;61;20466;-65
2024/03/19 00:18:04;0.00;0.00;0.62;0.00;0.00;0.62;3.87;3.20;;;22.40;20.90;;;;;;2263041;61;20381;-65
2024/03/19 00:20:30;0.00;0.00;0.62;0.00;0.00;0.62;3.53;2.47;;;22.40;20.90;;;;;;2263003;61;20357;-65
2024/03/19 00:22:58;0.00;0.00;0.62;0.00;0.00;0.62;3.57;2.80;;;22.40;20.90;;;;;;2263182;61;20692;-65
2024/03/19 00:30:46;0.00;0.00;0.62;0.00;0.00;0.62;3.60;2.77;;;22.40;20.90;;;;;;2262570;61;20348;-65
2024/03/19 00:33:13;0.00;0.00;0.62;0.00;0.00;0.62;3.57;2.70;;;22.40;21.00;;;;;;2263079;61;20695;-65
2024/03/19 00:35:41;0.00;0.00;0.62;0.00;0.00;0.62;2.67;1.97;;;22.40;20.90;;;;;;2262998;61;20642;-65
2024/03/19 00:38:09;0.00;0.00;0.62;0.00;0.00;0.62;3.60;2.70;;;22.30;20.90;;;;;;2262850;61;20438;-64
2024/03/19 00:40:35;0.00;0.00;0.62;0.00;0.00;0.62;4.03;2.93;;;22.30;20.90;;;;;;2262834;61;20879;-65
2024/03/19 00:43:04;0.00;0.00;0.62;0.00;0.00;0.62;2.97;2.07;;;22.40;21.00;;;;;;2263077;61;20360;-65
2024/03/19 00:45:31;0.00;0.00;0.62;0.00;0.00;0.62;3.60;2.43;;;22.30;20.90;;;;;;2262935;61;20373;-65
2024/03/19 00:47:57;0.00;0.00;0.62;0.00;0.00;0.62;3.20;2.37;;;22.30;20.90;;;;;;2263055;61;20885;-65
2024/03/19 00:50:24;0.00;0.00;0.62;0.00;0.00;0.62;3.97;2.50;;;22.30;20.90;;;;;;2263122;61;20364;-65
2024/03/19 00:52:50;0.00;0.00;0.62;0.00;0.00;0.62;3.40;2.30;;;22.30;20.90;;;;;;2262887;61;20364;-65
2024/03/19 00:55:20;0.00;0.00;0.62;0.00;0.00;0.62;2.80;2.30;;;22.30;20.90;;;;;;2262847;61;20448;-65
2024/03/19 00:57:47;0.00;0.00;0.62;0.00;0.00;0.62;3.77;2.67;;;22.30;20.90;;;;;;2263104;61;20366;-64
2024/03/19 01:00:18;0.00;0.00;0.62;0.00;0.00;0.62;3.83;2.70;;;22.30;20.90;;;;;;2263188;61;20895;-60
2024/03/19 01:02:45;0.00;0.00;0.62;0.00;0.00;0.62;3.13;2.30;;;22.40;21.00;;;;;;2262468;61;20357;-64
2024/03/19 01:05:12;0.00;0.00;0.62;0.00;0.00;0.62;3.43;2.50;;;22.30;20.90;;;;;;2263143;61;20380;-64
2024/03/19 01:07:39;0.00;0.00;0.62;0.00;0.00;0.62;3.90;2.63;;;22.30;20.90;;;;;;2259032;61;20349;-64
2024/03/19 01:10:07;0.00;0.00;0.62;0.00;0.00;0.62;2.83;2.27;;;22.30;20.90;;;;;;2262852;61;20358;-64
2024/03/19 01:12:35;0.00;0.00;0.62;0.00;0.00;0.62;3.37;2.50;;;22.30;20.90;;;;;;2262824;61;20400;-62
2024/03/19 01:15:01;0.00;0.00;0.62;0.00;0.00;0.62;3.40;2.60;;;22.30;20.90;;;;;;2262790;61;20376;-64
2024/03/19 01:17:27;0.00;0.00;0.62;0.00;0.00;0.62;3.03;2.40;;;22.30;20.90;;;;;;2262476;61;20425;-64
2024/03/19 01:19:54;0.00;0.00;0.62;0.00;0.00;0.62;4.00;2.93;;;22.30;20.90;;;;;;2263030;61;20356;-64
2024/03/19 01:22:20;0.00;0.00;0.62;0.00;0.00;0.62;3.50;2.27;;;22.30;20.90;;;;;;2262751;61;20351;-64
2024/03/19 01:24:46;0.00;0.00;0.62;0.00;0.00;0.62;3.60;2.83;;;22.30;20.90;;;;;;2262840;61;20369;-64
2024/03/19 01:27:12;0.00;0.00;0.62;0.00;0.00;0.62;2.63;2.17;;;22.30;20.80;;;;;;2262891;61;20409;-64
2024/03/19 01:29:40;0.00;0.00;0.62;0.00;0.00;0.62;2.90;2.40;;;22.30;20.80;;;;;;2262912;61;20381;-64
2024/03/19 01:32:07;0.00;0.00;0.62;0.00;0.00;0.62;3.90;2.20;;;22.30;20.90;;;;;;2262077;61;20368;-64
2024/03/19 01:34:33;0.00;0.00;0.62;0.00;0.00;0.62;2.90;2.30;;;22.30;20.90;;;;;;2262639;61;20369;-63
2024/03/19 01:36:59;0.00;0.00;0.62;0.00;0.00;0.62;2.40;1.80;;;22.30;20.80;;;;;;2262668;61;20369;-63
2024/03/19 01:39:26;0.00;0.00;0.62;0.00;0.00;0.62;2.87;2.33;;;22.30;20.80;;;;;;2262651;61;20874;-64
2024/03/19 01:41:54;0.00;0.00;0.62;0.00;0.00;0.62;3.53;2.73;;;22.30;20.80;;;;;;2262829;61;20885;-64
2024/03/19 01:44:21;0.00;0.00;0.62;0.00;0.00;0.62;3.27;2.00;;;22.30;20.80;;;;;;2258827;61;20349;-64
2024/03/19 01:46:49;0.00;0.00;0.62;0.00;0.00;0.62;3.50;2.67;;;22.30;20.80;;;;;;2262377;61;20810;-64
2024/03/19 01:49:15;0.00;0.00;0.62;0.00;0.00;0.62;2.80;1.97;;;22.30;20.80;;;;;;2262787;61;20345;-64
2024/03/19 01:51:43;0.00;0.00;0.62;0.00;0.00;0.62;3.53;1.80;;;22.30;20.80;;;;;;2261657;61;20364;-64
2024/03/19 01:54:09;0.00;0.00;0.62;0.00;0.00;0.62;3.10;2.07;;;22.30;20.80;;;;;;2258637;61;20396;-64
2024/03/19 01:56:37;0.00;0.00;0.62;0.00;0.00;0.62;3.23;2.33;;;22.30;20.80;;;;;;2251445;61;20408;-63
2024/03/19 01:59:03;0.00;0.00;0.62;0.00;0.00;0.62;3.13;1.90;;;22.30;20.80;;;;;;2260257;61;20372;-64
2024/03/19 02:01:30;0.00;0.00;0.62;0.00;0.00;0.62;2.60;1.90;;;22.30;20.80;;;;;;2262726;61;20425;-63
2024/03/19 02:03:58;0.00;0.00;0.62;0.00;0.00;0.62;3.10;2.40;;;22.30;20.80;;;;;;2262868;61;20875;-64
2024/03/19 02:06:24;0.00;0.00;0.62;0.00;0.00;0.62;3.63;2.30;;;22.30;20.80;;;;;;2256564;61;20978;-64
2024/03/19 02:08:58;0.00;0.00;0.62;0.00;0.00;0.62;3.20;1.77;;;22.30;20.80;;;;;;2263571;61;20345;-63
2024/03/19 02:11:24;0.00;0.00;0.62;0.00;0.00;0.62;2.70;2.10;;;22.30;20.80;;;;;;2263595;61;20895;-63
2024/03/19 02:13:50;0.00;0.00;0.62;0.00;0.00;0.62;3.10;2.10;;;22.30;20.90;;;;;;2258709;61;20381;-63
2024/03/19 02:16:16;0.00;0.00;0.62;0.00;0.00;0.62;3.37;2.17;;;22.30;20.80;;;;;;2259542;61;20388;-64
2024/03/19 02:18:42;0.00;0.00;0.62;0.00;0.00;0.62;3.07;2.10;;;22.30;20.80;;;;;;2259504;61;20369;-64
2024/03/19 02:21:10;0.00;0.00;0.62;0.00;0.00;0.62;4.13;2.40;;;22.30;20.90;;;;;;2259341;61;20358;-63
2024/03/19 02:23:38;0.00;0.00;0.62;0.00;0.00;0.62;2.53;1.87;;;22.30;20.90;;;;;;2256050;61;20891;-63
2024/03/19 02:26:04;0.00;0.00;0.62;0.00;0.00;0.62;3.23;2.40;;;22.30;20.90;;;;;;2255977;61;20396;-63
2024/03/19 02:28:30;0.00;0.00;0.62;0.00;0.00;0.62;3.27;1.83;;;22.30;20.90;;;;;;2259313;61;20357;-64
2024/03/19 02:30:56;0.00;0.00;0.62;0.00;0.00;0.62;2.47;1.90;;;22.30;20.90;;;;;;2259769;61;20354;-63
2024/03/19 02:33:22;0.00;0.00;0.62;0.00;0.00;0.62;3.03;2.00;;;22.30;20.90;;;;;;2259673;61;20350;-63
2024/03/19 02:35:48;0.00;0.00;0.62;0.00;0.00;0.62;2.60;2.13;;;22.30;20.90;;;;;;2259462;61;20417;-64
2024/03/19 02:38:15;0.00;0.00;0.62;0.00;0.00;0.62;2.77;1.90;;;22.30;20.90;;;;;;2259625;61;20516;-64
2024/03/19 02:40:44;0.00;0.00;0.62;0.00;0.00;0.62;2.60;1.90;;;22.30;20.90;;;;;;2259620;61;20354;-64
2024/03/19 02:43:10;0.00;0.00;0.62;0.00;0.00;0.62;2.50;2.17;;;22.30;20.90;;;;;;2259261;61;20362;-63
2024/03/19 02:45:37;0.00;0.00;0.62;0.00;0.00;0.62;2.73;2.10;;;22.30;20.90;;;;;;2259747;61;20370;-63
2024/03/19 02:48:03;0.00;0.00;0.62;0.00;0.00;0.62;3.23;2.10;;;22.30;20.90;;;;;;2259634;61;20351;-64
2024/03/19 02:50:29;0.00;0.00;0.62;0.00;0.00;0.62;2.67;1.90;;;22.30;20.90;;;;;;2259205;61;20357;-64
2024/03/19 02:52:55;0.00;0.00;0.62;0.00;0.00;0.62;3.33;2.20;;;22.30;20.90;;;;;;2259957;61;20389;-64
2024/03/19 02:55:22;0.00;0.00;0.62;0.00;0.00;0.62;2.70;2.00;;;22.30;20.90;;;;;;2259462;61;20369;-64
2024/03/19 02:57:49;0.00;0.00;0.62;0.00;0.00;0.62;3.73;2.10;;;22.30;20.90;;;;;;2259140;61;20370;-64
2024/03/19 03:00:16;0.00;0.00;0.62;0.00;0.00;0.62;2.70;1.90;;;22.20;20.80;;;;;;2259739;61;20828;-64
2024/03/19 03:02:42;0.00;0.00;0.62;0.00;0.00;0.62;2.97;2.30;;;22.30;20.90;;;;;;2259268;61;20361;-63
2024/03/19 03:05:09;0.00;0.00;0.62;0.00;0.00;0.62;4.07;1.80;;;22.30;20.90;;;;;;2259369;61;20350;-64
2024/03/19 03:07:35;0.00;0.00;0.62;0.00;0.00;0.62;2.70;1.80;;;22.30;20.90;;;;;;2259682;61;20884;-63
2024/03/19 03:10:03;0.00;0.00;0.62;0.00;0.00;0.62;2.40;1.83;;;22.20;20.80;;;;;;2259574;61;20444;-63
2024/03/19 03:12:29;0.00;0.00;0.62;0.00;0.00;0.62;2.10;1.47;;;22.20;20.80;;;;;;2259395;61;20414;-63
2024/03/19 03:14:57;0.00;0.00;0.62;0.00;0.00;0.62;2.33;2.00;;;22.20;20.80;;;;;;2259332;61;20370;-64
2024/03/19 03:17:23;0.00;0.00;0.62;0.00;0.00;0.62;2.80;2.07;;;22.20;20.80;;;;;;2259172;61;20524;-61
2024/03/19 03:19:49;0.00;0.00;0.62;0.00;0.00;0.62;3.20;1.90;;;22.20;20.80;;;;;;2259491;61;20350;-63
2024/03/19 03:22:15;0.00;0.00;0.62;0.00;0.00;0.62;2.20;1.70;;;22.20;20.80;;;;;;2259545;61;20358;-63
2024/03/19 03:24:41;0.00;0.00;0.62;0.00;0.00;0.62;2.73;1.73;;;22.20;20.80;;;;;;2259524;61;20433;-63
2024/03/19 03:27:08;0.00;0.00;0.62;0.00;0.00;0.62;2.87;1.80;;;22.30;20.90;;;;;;2259462;61;20381;-64
2024/03/19 03:29:36;0.00;0.00;0.62;0.00;0.00;0.62;4.60;1.97;;;22.20;20.80;;;;;;2259509;61;20449;-63
2024/03/19 03:32:04;0.00;0.00;0.62;0.00;0.00;0.62;2.80;2.00;;;22.20;20.80;;;;;;2259276;61;20358;-64
2024/03/19 03:34:31;0.00;0.00;0.62;0.00;0.00;0.62;2.67;1.77;;;22.20;20.80;;;;;;2259926;61;20451;-63
2024/03/19 03:36:57;0.00;0.00;0.62;0.00;0.00;0.62;2.83;1.90;;;22.20;20.80;;;;;;2258923;61;20388;-64
2024/03/19 03:39:23;0.00;0.00;0.62;0.00;0.00;0.62;2.50;2.10;;;22.20;20.80;;;;;;2261042;61;20924;-64
2024/03/19 03:41:49;0.00;0.00;0.62;0.00;0.00;0.62;2.83;1.80;;;22.20;20.80;;;;;;2263293;61;20369;-63
2024/03/19 03:44:15;0.00;0.00;0.62;0.00;0.00;0.62;2.67;1.80;;;22.20;20.80;;;;;;2263187;61;20357;-63
2024/03/19 03:46:42;0.00;0.00;0.62;0.00;0.00;0.62;2.43;1.50;;;22.20;20.80;;;;;;2263245;61;20377;-63
2024/03/19 03:49:09;0.00;0.00;0.62;0.00;0.00;0.62;3.93;1.87;;;22.20;20.80;;;;;;2263175;61;20384;-64
2024/03/19 03:51:36;0.00;0.00;0.62;0.00;0.00;0.62;3.23;2.23;;;22.20;20.80;;;;;;2262634;61;20375;-61
2024/03/19 03:54:03;0.00;0.00;0.62;0.00;0.00;0.62;2.63;1.80;;;22.20;20.80;;;;;;2263317;61;20360;-63
2024/03/19 03:56:29;0.00;0.00;0.62;0.00;0.00;0.62;2.37;1.87;;;22.20;20.80;;;;;;2263163;61;20384;-63
2024/03/19 03:58:56;0.00;0.00;0.62;0.00;0.00;0.62;2.30;1.53;;;22.20;20.80;;;;;;2262561;61;20890;-63
2024/03/19 04:01:22;0.00;0.00;0.62;0.00;0.00;0.62;2.90;1.80;;;22.20;20.80;;;;;;2262791;61;20775;-63
2024/03/19 04:03:49;0.00;0.00;0.62;0.00;0.00;0.62;3.27;2.03;;;22.20;20.80;;;;;;2263274;61;20362;-63
2024/03/19 04:06:16;0.00;0.00;0.62;0.00;0.00;0.62;2.27;1.70;;;22.20;20.80;;;;;;2261775;61;20387;-63
2024/03/19 04:08:42;0.00;0.00;0.62;0.00;0.00;0.62;2.20;1.80;;;22.20;20.80;;;;;;2261456;61;20369;-63
2024/03/19 04:11:11;0.00;0.00;0.62;0.00;0.00;0.62;2.50;1.73;;;22.20;20.80;;;;;;2261766;61;20388;-62
2024/03/19 04:13:37;0.00;0.00;0.62;0.00;0.00;0.62;2.70;2.00;;;22.20;20.90;;;;;;2261919;61;20371;-63
2024/03/19 04:16:04;0.00;0.00;0.62;0.00;0.00;0.62;2.30;1.80;;;22.20;20.80;;;;;;2262601;61;20472;-64
2024/03/19 04:18:31;0.00;0.00;0.62;0.00;0.00;0.62;2.50;1.77;;;22.20;20.90;;;;;;2263045;61;20415;-63
2024/03/19 04:20:57;0.00;0.00;0.62;0.00;0.00;0.62;2.57;1.70;;;22.20;20.90;;;;;;2262852;61;20408;-63
2024/03/19 04:23:24;0.00;0.00;0.62;0.00;0.00;0.62;2.20;1.40;;;22.20;20.80;;;;;;2262979;61;20388;-62
2024/03/19 04:25:50;0.00;0.00;0.62;0.00;0.00;0.62;2.83;1.73;;;22.20;20.90;;;;;;2263283;61;20369;-63
2024/03/19 04:28:16;0.00;0.00;0.62;0.00;0.00;0.62;2.20;1.70;;;22.20;20.90;;;;;;2262459;61;20397;-63
2024/03/19 04:30:43;0.00;0.00;0.62;0.00;0.00;0.62;2.80;1.93;;;22.20;20.90;;;;;;2263083;61;20345;-62
2024/03/19 04:33:09;0.00;0.00;0.62;0.00;0.00;0.62;3.27;1.77;;;22.20;20.90;;;;;;2263010;61;20357;-63
2024/03/19 04:35:37;0.00;0.00;0.62;0.00;0.00;0.62;2.47;1.80;;;22.20;20.80;;;;;;2262460;61;20400;-62
2024/03/19 04:38:04;0.00;0.00;0.62;0.00;0.00;0.62;2.43;1.53;;;22.20;20.80;;;;;;2263003;61;20376;-63
2024/03/19 04:40:32;0.00;0.00;0.62;0.00;0.00;0.62;2.97;1.90;;;22.20;20.90;;;;;;2263118;61;20365;-64
2024/03/19 04:42:59;0.00;0.00;0.62;0.00;0.00;0.62;3.93;1.77;;;22.20;20.80;;;;;;2258904;61;20386;-64
2024/03/19 04:45:25;0.00;0.00;0.62;0.00;0.00;0.62;2.90;1.60;;;22.20;20.80;;;;;;2262976;61;20369;-64
2024/03/19 04:47:51;0.00;0.00;0.62;0.00;0.00;0.62;3.07;1.73;;;22.20;20.80;;;;;;2263024;61;20451;-64
2024/03/19 04:50:17;0.00;0.00;0.62;0.00;0.00;0.62;2.63;1.67;;;22.20;20.80;;;;;;2262936;61;20885;-64
2024/03/19 04:52:43;0.00;0.00;0.62;0.00;0.00;0.62;3.47;1.60;;;22.20;20.90;;;;;;2263262;61;20356;-63
2024/03/19 04:55:11;0.00;0.00;0.62;0.00;0.00;0.62;2.47;1.40;;;22.20;20.80;;;;;;2262976;61;20353;-64
2024/03/19 04:57:39;0.00;0.00;0.62;0.00;0.00;0.62;2.90;1.87;;;22.20;20.80;;;;;;2262431;61;20514;-64
2024/03/19 05:00:11;0.00;0.00;0.62;0.00;0.00;0.62;3.40;1.70;;;22.20;20.80;;;;;;2263019;61;20882;-63
2024/03/19 05:02:37;0.00;0.00;0.62;0.00;0.00;0.62;2.10;1.70;;;22.10;20.80;;;;;;2262694;61;20361;-63
2024/03/19 05:05:04;0.00;0.00;0.62;0.00;0.00;0.62;2.33;1.73;;;22.20;20.90;;;;;;2262847;61;20436;-63
2024/03/19 05:07:30;0.00;0.00;0.62;0.00;0.00;0.62;3.47;2.10;;;22.20;20.90;;;;;;2263042;61;20909;-63
2024/03/19 05:09:57;0.00;0.00;0.62;0.00;0.00;0.62;2.43;1.80;;;22.10;20.80;;;;;;2258975;61;20357;-64
2024/03/19 05:12:23;0.00;0.00;0.62;0.00;0.00;0.62;2.03;1.60;;;22.10;20.80;;;;;;2262181;61;20365;-64
2024/03/19 05:14:50;0.00;0.00;0.62;0.00;0.00;0.62;2.40;1.57;;;22.20;20.90;;;;;;2263008;61;20613;-64
2024/03/19 05:17:16;0.00;0.00;0.62;0.00;0.00;0.62;2.23;1.70;;;22.10;20.80;;;;;;2263085;61;20445;-64
2024/03/19 05:19:42;0.00;0.00;0.62;0.00;0.00;0.62;2.20;1.67;;;22.10;20.80;;;;;;2262408;61;20380;-63
2024/03/19 05:22:09;0.00;0.00;0.62;0.00;0.00;0.62;1.77;1.20;;;22.10;20.80;;;;;;2263015;61;20895;-63
2024/03/19 05:24:35;0.00;0.00;0.62;0.00;0.00;0.62;2.17;1.80;;;22.10;20.80;;;;;;2262818;61;20813;-63
2024/03/19 05:27:02;0.00;0.00;0.62;0.00;0.00;0.62;2.80;1.37;;;22.10;20.80;;;;;;2262869;61;20392;-63
2024/03/19 05:29:28;0.00;0.00;0.62;0.00;0.00;0.62;2.67;1.90;;;22.10;20.80;;;;;;2262936;61;20345;-63
2024/03/19 05:31:56;0.00;0.00;0.62;0.00;0.00;0.62;2.37;1.70;;;22.10;20.80;;;;;;2262801;61;20849;-64
2024/03/19 05:34:22;0.00;0.00;0.62;0.00;0.00;0.62;2.20;1.60;;;22.10;20.80;;;;;;2262551;61;20871;-64
2024/03/19 05:36:48;0.00;0.00;0.62;0.00;0.00;0.62;1.90;1.57;;;22.10;20.80;;;;;;2262924;61;20376;-63
2024/03/19 05:39:14;0.00;0.00;0.62;0.00;0.00;0.62;2.33;1.60;;;22.10;20.80;;;;;;2263244;61;20440;-63
2024/03/19 05:41:40;0.00;0.00;0.62;0.00;0.00;0.62;4.60;1.27;;;22.10;20.80;;;;;;2259481;61;20353;-63
2024/03/19 05:44:07;0.00;0.00;0.62;0.00;0.00;0.62;2.40;1.80;;;22.10;20.80;;;;;;2263718;61;20648;-63
2024/03/19 05:46:33;0.00;0.00;0.62;0.00;0.00;0.62;2.13;1.47;;;22.10;20.80;;;;;;2263609;61;20376;-63
2024/03/19 05:49:01;0.00;0.00;0.62;0.00;0.00;0.62;2.10;1.57;;;22.10;20.80;;;;;;2263462;61;20352;-63
2024/03/19 05:51:27;0.00;0.00;0.62;0.00;0.00;0.62;2.70;1.40;;;22.10;20.80;;;;;;2263524;61;20451;-63
2024/03/19 05:53:53;0.00;0.00;0.62;0.00;0.00;0.62;2.23;1.33;;;22.10;20.80;;;;;;2263321;61;20361;-63
2024/03/19 05:56:20;0.00;0.00;0.62;0.00;0.00;0.62;2.67;1.60;;;22.10;20.80;;;;;;2262510;61;20756;-63
2024/03/19 05:58:46;0.00;0.00;0.62;0.00;0.00;0.62;2.20;1.50;;;22.10;20.80;;;;;;2263067;61;20391;-64
2024/03/19 06:01:12;0.00;0.00;0.62;0.00;0.00;0.62;2.73;1.60;;;22.10;20.80;;;;;;2263514;61;20452;-64
2024/03/19 06:03:38;0.00;0.00;0.62;0.00;0.00;0.62;2.27;1.70;;;22.10;21.30;;;;;;2259298;61;20959;-64
2024/03/19 06:06:09;0.00;0.00;0.62;0.00;0.00;0.62;2.23;1.53;;;22.10;20.80;;;;;;2263188;61;20936;-64
2024/03/19 06:08:36;0.00;0.00;0.62;0.00;0.00;0.62;2.90;1.50;;;22.10;20.80;;;;;;2263431;61;20370;-64
2024/03/19 06:11:03;0.00;0.00;0.62;0.00;0.00;0.62;2.90;1.80;;;22.10;20.80;;;;;;2263402;61;20435;-63
2024/03/19 06:13:29;0.00;0.00;0.62;0.00;0.00;0.62;3.30;1.50;;;22.10;20.80;;;;;;2263107;61;20388;-64
2024/03/19 06:15:55;0.00;0.00;0.62;0.00;0.00;0.62;2.70;1.70;;;22.10;20.80;;;;;;2262896;61;20380;-63
2024/03/19 06:18:22;0.00;0.00;0.62;0.00;0.00;0.62;2.90;1.70;;;22.10;20.80;;;;;;2263276;61;20383;-64
2024/03/19 06:20:48;0.00;0.00;0.62;0.00;0.00;0.62;1.90;1.37;;;22.10;20.80;;;;;;2263258;61;20436;-63
2024/03/19 06:23:16;0.00;0.00;0.62;0.00;0.00;0.62;3.30;1.87;;;22.00;20.70;;;;;;2263352;61;20391;-64
2024/03/19 06:25:43;0.00;0.00;0.62;0.00;0.00;0.62;2.43;1.63;;;22.00;20.70;;;;;;2263495;61;20387;-64
2024/03/19 06:28:10;0.00;0.00;0.62;0.00;0.00;0.62;2.60;1.70;;;22.10;20.80;;;;;;2263239;61;20380;-64
2024/03/19 06:30:37;0.00;0.00;0.62;0.00;0.00;0.62;5.80;2.90;;;22.00;20.70;;;;;;2263087;61;20349;-64
2024/03/19 06:33:04;0.00;0.00;0.62;0.00;0.00;0.62;5.23;2.00;;;22.00;20.70;;;;;;2263360;61;20749;-64
2024/03/19 06:35:32;0.00;0.00;0.62;0.00;0.00;0.62;2.83;1.80;;;22.00;20.70;;;;;;2263182;61;20438;-64
2024/03/19 06:37:58;0.00;0.00;0.62;0.00;0.00;0.62;4.17;1.97;;;22.00;20.80;;;;;;2263176;61;20373;-64
2024/03/19 06:40:26;0.00;0.00;0.62;0.00;0.00;0.62;2.53;1.47;;;22.00;20.70;;;;;;2263466;61;20361;-64
2024/03/19 06:42:52;0.00;0.00;0.62;0.00;0.00;0.62;3.30;1.90;;;22.00;20.70;;;;;;2263202;61;20368;-64
2024/03/19 06:45:18;0.00;0.00;0.62;0.00;0.00;0.62;2.20;1.67;;;22.00;20.70;;;;;;2263371;61;20415;-64
2024/03/19 06:47:44;0.00;0.00;0.62;0.00;0.00;0.62;4.00;1.53;;;22.00;20.70;;;;;;2263216;61;20357;-64
2024/03/19 06:50:13;0.00;0.00;0.62;0.00;0.00;0.62;2.40;1.50;;;22.00;20.70;;;;;;2263053;61;20356;-64
2024/03/19 06:52:45;0.00;0.00;0.62;0.00;0.00;0.62;1.90;1.40;;;22.00;20.70;;;;;;2263372;61;20384;-64
2024/03/19 06:55:11;0.00;0.00;0.62;0.00;0.00;0.62;2.90;1.63;;;22.00;20.80;;;;;;2263354;61;20436;-64
2024/03/19 06:57:39;0.00;0.00;0.62;0.00;0.00;0.62;2.77;1.60;;;22.00;20.70;;;;;;2259213;61;20353;-64
2024/03/19 07:00:13;0.00;0.00;0.62;0.00;0.00;0.62;3.67;2.47;;;22.00;20.70;;;;;;2263349;61;20363;-64
2024/03/19 07:02:41;0.00;0.00;0.62;0.00;0.00;0.62;2.70;2.10;;;22.00;20.80;;;;;;2262770;61;20407;-64
2024/03/19 07:05:08;0.00;0.00;0.62;0.00;0.00;0.62;2.87;1.97;;;22.00;20.80;;;;;;2259341;61;20400;-64
2024/03/19 07:07:35;0.00;0.00;0.62;0.00;0.00;0.62;3.97;2.60;;;22.00;20.80;;;;;;2263343;61;20428;-64
2024/03/19 07:10:02;0.00;0.00;0.62;0.00;0.00;0.62;4.80;3.03;;;22.00;20.80;;;;;;2263207;61;20866;-64
2024/03/19 07:12:29;0.00;0.00;0.62;0.00;0.00;0.62;4.43;3.00;;;22.00;20.80;;;;;;2263004;61;20422;-64
2024/03/19 07:14:57;0.00;0.00;0.62;0.00;0.00;0.62;4.80;3.30;;;22.10;20.90;;;;;;2259323;61;20365;-64
2024/03/19 07:17:24;0.00;0.00;0.62;0.00;0.00;0.62;3.93;2.90;;;22.00;20.80;;;;;;2262994;61;20380;-64
2024/03/19 07:19:50;0.00;0.00;0.62;0.00;0.00;0.62;4.30;3.20;;;22.00;20.80;;;;;;2263073;61;20423;-64
2024/03/19 07:22:16;0.00;0.00;0.62;0.00;0.00;0.62;4.03;3.40;;;22.00;20.80;;;;;;2263304;61;20363;-64
2024/03/19 07:24:42;0.00;0.00;0.62;0.00;0.00;0.62;5.97;4.27;;;22.00;20.80;;;;;;2263175;61;20381;-64
2024/03/19 07:27:08;0.00;0.00;0.62;0.00;0.00;0.62;6.00;4.30;;;22.00;20.80;;;;;;2262833;61;20918;-64
2024/03/19 07:29:35;0.00;0.00;0.62;0.00;0.00;0.62;5.07;4.00;;;22.00;20.80;;;;;;2263186;61;20353;-64
2024/03/19 07:32:03;0.00;0.00;0.62;0.00;0.00;0.62;7.30;5.67;;;22.10;20.90;;;;;;2263018;61;20399;-64
2024/03/19 07:34:29;0.00;0.00;0.62;0.00;0.00;0.62;7.13;5.37;;;22.00;20.80;;;;;;2262937;61;20364;-64
2024/03/19 07:36:56;0.00;0.00;0.62;0.00;0.00;0.62;6.70;5.47;;;22.10;20.90;;;;;;2263273;61;20404;-64
2024/03/19 07:39:22;0.00;0.00;0.62;0.00;0.00;0.62;7.17;5.70;;;22.00;20.80;;;;;;2263120;61;20472;-64
2024/03/19 07:41:48;0.00;0.00;0.62;0.00;0.00;0.62;5.90;5.23;;;22.10;20.90;;;;;;2262934;61;20349;-64
2024/03/19 07:44:14;0.00;0.00;0.62;0.00;0.00;0.62;7.27;5.53;;;22.10;20.90;;;;;;2263180;61;20944;-64
2024/03/19 07:46:40;0.00;0.00;0.62;0.00;0.00;0.62;7.57;6.30;;;22.00;20.80;;;;;;2263107;61;20925;-64
2024/03/19 07:49:08;0.00;0.00;0.62;0.00;0.00;0.62;8.63;6.10;;;22.00;20.90;;;;;;2263089;61;20356;-64
2024/03/19 07:51:34;0.00;0.00;0.62;0.00;0.00;0.62;7.80;6.43;;;22.00;20.80;;;;;;2263288;61;20361;-64
2024/03/19 07:54:00;0.00;0.00;0.62;0.00;0.00;0.62;9.03;6.93;;;22.00;20.80;;;;;;2262989;61;20345;-64
2024/03/19 07:56:30;0.00;0.00;0.62;0.00;0.00;0.62;8.40;7.30;;;22.00;20.80;;;;;;2262905;61;20380;-63
2024/03/19 07:58:57;0.00;0.00;0.62;0.00;0.00;0.62;7.23;5.67;;;22.10;20.90;;;;;;2262788;61;20380;-63
2024/03/19 08:01:23;0.00;0.00;0.62;0.00;0.00;0.62;8.50;6.40;;;22.10;20.90;;;;;;2262866;61;20360;-63
2024/03/19 08:03:49;0.00;0.00;0.62;0.00;0.00;0.62;7.33;6.17;;;22.10;20.90;;;;;;2262692;61;20385;-63
2024/03/19 08:06:17;0.00;0.00;0.62;0.00;0.00;0.62;7.60;6.33;;;22.10;20.90;;;;;;2263113;61;20376;-63
2024/03/19 08:08:43;0.00;0.00;0.62;0.00;0.00;0.62;7.90;6.27;;;22.00;20.90;;;;;;2262955;61;20349;-63
2024/03/19 08:11:10;0.00;0.00;0.62;0.00;0.00;0.62;8.50;6.90;;;22.00;20.90;;;;;;2262653;61;20775;-64
2024/03/19 08:13:36;0.00;0.00;0.62;0.00;0.00;0.62;6.63;5.70;;;22.10;20.90;;;;;;2263035;61;20360;-64
2024/03/19 08:16:03;0.00;0.00;0.62;0.00;0.00;0.62;8.47;6.47;;;22.10;20.90;;;;;;2262860;61;20377;-63
2024/03/19 08:18:29;0.00;0.00;0.62;0.00;0.00;0.62;6.97;6.20;;;22.10;21.40;;;;;;2262823;61;20384;-63
2024/03/19 08:20:55;0.00;0.00;0.62;0.00;0.00;0.62;7.00;5.63;;;22.10;20.90;;;;;;2263056;61;20376;-63
2024/03/19 08:23:24;0.00;0.00;0.62;0.00;0.00;0.62;7.70;6.30;;;22.10;21.00;;;;;;2263120;61;20464;-63
2024/03/19 08:25:50;0.00;0.00;0.62;0.00;0.00;0.62;6.00;4.83;;;22.00;20.90;;;;;;2262554;61;20446;-63
2024/03/19 08:28:17;0.00;0.00;0.62;0.00;0.00;0.62;6.60;5.70;;;22.10;21.00;;;;;;2263103;61;20345;-63
2024/03/19 08:30:45;0.00;0.00;0.62;0.00;0.00;0.62;9.43;6.57;;;22.10;21.00;;;;;;2262911;61;20357;-63
2024/03/19 08:33:11;0.00;0.00;0.62;0.00;0.00;0.62;6.77;5.60;;;22.10;21.00;;;;;;2262786;61;20360;-63
2024/03/19 08:35:38;0.00;0.00;0.62;0.00;0.00;0.62;7.57;6.53;;;22.10;21.00;;;;;;2263061;61;20377;-63
2024/03/19 08:38:05;0.00;0.00;0.62;0.00;0.00;0.62;6.20;5.23;;;22.10;21.00;;;;;;2262790;61;20412;-64
2024/03/19 08:40:33;0.00;0.00;0.62;0.00;0.00;0.62;8.77;5.73;;;22.10;21.00;;;;;;2262853;61;20456;-63
2024/03/19 08:42:59;0.00;0.00;0.62;0.00;0.00;0.62;8.03;5.70;;;22.10;21.10;;;;;;2263086;61;20353;-63
2024/03/19 08:45:26;0.00;0.00;0.62;0.00;0.00;0.62;7.30;5.57;;;22.10;21.10;;;;;;2262751;61;20835;-63
2024/03/19 08:47:52;0.00;0.00;0.62;0.00;0.00;0.62;7.70;5.40;;;22.10;21.00;;;;;;2258868;61;20930;-63
2024/03/19 08:50:19;0.00;0.00;0.62;0.00;0.00;0.62;7.53;5.77;;;22.10;21.10;;;;;;2262981;61;20357;-63
2024/03/19 08:52:45;0.00;0.00;0.62;0.00;0.00;0.62;6.27;5.67;;;22.10;21.60;;;;;;2262860;61;20360;-63
2024/03/19 08:55:12;0.00;0.00;0.62;0.00;0.00;0.62;6.30;4.90;;;22.10;21.10;;;;;;2262818;61;20349;-63
2024/03/19 08:57:40;0.00;0.00;0.62;0.00;0.00;0.62;7.53;5.17;;;22.10;21.10;;;;;;2262883;61;20411;-64
2024/03/19 09:00:15;0.00;0.00;0.62;0.00;0.00;0.62;7.57;5.67;;;22.10;21.10;;;;;;2262675;61;20388;-63
2024/03/19 09:02:42;0.00;0.00;0.62;0.00;0.00;0.62;5.47;4.80;;;22.10;21.10;;;;;;2262450;61;20364;-63
2024/03/19 09:05:09;0.00;0.00;0.62;0.00;0.00;0.62;7.40;5.33;;;22.10;21.10;;;;;;2262943;61;20360;-63
2024/03/19 09:07:39;0.00;0.00;0.62;0.00;0.00;0.62;6.30;5.20;;;22.10;21.10;;;;;;2262817;61;20361;-63
2024/03/19 09:10:07;0.00;0.00;0.62;0.00;0.00;0.62;5.57;5.00;;;22.10;21.10;;;;;;2262901;61;20354;-63
2024/03/19 09:12:33;0.00;0.00;0.62;0.00;0.00;0.62;5.90;4.80;;;22.10;21.20;;;;;;2262893;61;20568;-63
2024/03/19 09:15:01;0.00;0.00;0.62;0.00;0.00;0.62;6.57;5.60;;;22.10;21.20;;;;;;2263554;61;20398;-63
2024/03/19 09:17:27;0.00;0.00;0.62;0.00;0.00;0.62;6.70;5.37;;;22.10;21.20;;;;;;2263412;61;20396;-63
2024/03/19 09:19:53;0.00;0.00;0.62;0.00;0.00;0.62;7.00;4.67;;;22.10;21.20;;;;;;2263372;61;20899;-63
2024/03/19 09:22:20;0.00;0.00;0.62;0.00;0.00;0.62;5.70;5.10;;;22.10;21.20;;;;;;2263394;61;20448;-63
2024/03/19 09:24:46;0.00;0.00;0.62;0.00;0.00;0.62;7.60;5.03;;;22.20;21.30;;;;;;2263457;61;20353;-63
2024/03/19 09:27:14;0.00;0.00;0.62;0.00;0.00;0.62;5.47;4.97;;;22.10;21.20;;;;;;2263307;61;20624;-63
2024/03/19 09:29:40;0.00;0.00;0.62;0.00;0.00;0.62;6.63;4.97;;;22.20;21.30;;;;;;2263503;61;20479;-63
2024/03/19 09:32:07;0.00;0.00;0.62;0.00;0.00;0.62;5.70;4.63;;;22.20;21.30;;;;;;2263256;61;20444;-63
2024/03/19 09:34:34;0.00;0.00;0.62;0.00;0.00;0.62;6.20;4.90;;;22.20;21.30;;;;;;2263666;61;20385;-63
2024/03/19 09:37:00;0.00;0.00;0.62;0.00;0.00;0.62;5.83;4.83;;;22.20;21.90;;;;;;2263319;61;20483;-63
2024/03/19 09:39:26;0.00;0.00;0.62;0.00;0.00;0.62;5.53;4.20;;;22.20;21.40;;;;;;2263220;61;20389;-63
2024/03/19 09:42:05;0.00;0.00;0.62;0.00;0.00;0.62;6.20;4.40;;;22.20;21.40;;;;;;2263626;61;20376;-63
2024/03/19 09:44:32;0.00;0.00;0.62;0.00;0.00;0.62;7.60;5.43;;;22.20;21.40;;;;;;2263414;61;20357;-63